Tropical Cyclones
[Index]
Main Index Home Page Stock Weather Photos Extreme Storms Discussion Storm News and Storm Chasing Reports Tropical Cyclones / Hurricanes / Typhoons Weather Data and Links Wild Fires / Bushfires Weather Observation Techniques Weather Picture Catalogue Tornado Pictures and Reports Stock Video Footage and DVDs for sale
Season 2013-2014 Tropical Cyclone BRUCE Track Map
Season 2013-2014 Summaries: [BoM-AU] [JTWC-AU] [JTWC-SIO] [JTWC-SPAC] [JTWC-SH]
<<- Previous TC | BoM 2013-2014 Season | Next TC ->>

click for intensity scale information  Lat/long Grid: Show Hide

 Date Labels: Show Hide

Bureau of Meteorology Tropical Cyclone Data

Name: BRUCE
Number: 971 / 201314_03

16 Dec 2013 06:00 UTC to 20 Dec 2013 00:00 UTC

    date/time    lat    long    hPa   cat  kts
2013-12-16 06    8.2    98.7   1005         20          
2013-12-16 08    8.3    98.4                            
2013-12-16 11    8.4    98.0                            
2013-12-16 12    8.4    98.0   1005         25          
2013-12-16 18    8.6    97.9   1004         25          
2013-12-17 00    8.9    97.7   1003         25          
2013-12-17 05    9.0    97.6                            
2013-12-17 06    9.0    97.6   1002         25          
2013-12-17 08    9.1    97.5                            
2013-12-17 11    9.2    97.4                            
2013-12-17 12    9.3    97.3   1003         25          
2013-12-17 18    9.9    96.9   1001         30          
2013-12-17 18   10.0    96.8                            
2013-12-17 22   10.2    96.4                            
2013-12-17 23   10.5    96.0                            
2013-12-18 00   10.5    96.0    994    1    40          
2013-12-18 01   10.6    96.0                            
2013-12-18 04   10.8    95.4                            
2013-12-18 06   11.0    95.2    991    1    45          
2013-12-18 11   11.4    94.6                            
2013-12-18 12   11.4    94.5    988    1    50          
2013-12-18 18   11.6    93.6    981    2    60          
2013-12-18 21   11.7    93.2                            
2013-12-18 22   11.8    93.1                            
2013-12-18 23   11.9    92.8                            
2013-12-19 00   11.9    92.8    976    2    65          
2013-12-19 03   12.0    92.5                            
2013-12-19 06   12.1    92.1    972    2    70          
2013-12-19 11   12.6    91.3                            
2013-12-19 12   12.6    91.2    964    3    80          
2013-12-19 14   12.7    90.9                            
2013-12-19 18   12.9    90.3    959    3    85          
2013-12-19 20   12.9    89.8                            
2013-12-20 00   13.2    89.6                            
Winds are 10-min average.

Tropical cyclone tracks developed by Michael Bath using data from the Bureau of Meteorology and Google Maps.


[Australian Severe Weather index] [Copyright Notice] [Email Contacts] [Search This Site] [Privacy Policy]
Document: tropical_cyclone_bruce.htm Updated: 29 June 2017